createdAt,value
2019-02-20T00:01:28.266Z,2.10
2019-02-20T00:04:00.015Z,2.00
2019-02-20T00:06:29.292Z,2.00
2019-02-20T00:08:59.024Z,2.00
2019-02-20T00:11:28.251Z,2.00
2019-02-20T00:13:57.990Z,2.00
2019-02-20T00:16:27.221Z,1.90
2019-02-20T00:18:56.491Z,1.90
2019-02-20T00:21:25.813Z,1.90
2019-02-20T00:24:00.757Z,1.90
2019-02-20T00:26:29.975Z,1.90
2019-02-20T00:28:59.299Z,1.90
2019-02-20T00:31:28.538Z,1.80
2019-02-20T00:34:01.262Z,1.80
2019-02-20T00:36:30.510Z,1.70
2019-02-20T00:38:59.739Z,1.70
2019-02-20T00:41:28.965Z,1.60
2019-02-20T00:44:01.917Z,1.60
2019-02-20T00:46:32.824Z,1.60
2019-02-20T00:49:03.699Z,1.60
2019-02-20T00:51:40.331Z,1.60
2019-02-20T00:54:09.579Z,1.50
2019-02-20T00:56:38.906Z,1.50
2019-02-20T00:59:08.204Z,1.50
2019-02-20T01:01:37.463Z,1.40
2019-02-20T01:04:06.762Z,1.40
2019-02-20T01:06:36.014Z,1.40
2019-02-20T01:09:06.498Z,1.40
2019-02-20T01:11:36.012Z,1.30
2019-02-20T01:14:05.305Z,1.30
2019-02-20T01:16:34.574Z,1.30
2019-02-20T01:19:03.818Z,1.30
2019-02-20T01:21:33.055Z,1.20
2019-02-20T01:24:02.452Z,1.20
2019-02-20T01:26:31.709Z,1.20
2019-02-20T01:29:00.944Z,1.20
2019-02-20T01:31:30.203Z,1.20
2019-02-20T01:34:00.205Z,1.10
2019-02-20T01:36:29.536Z,1.10
2019-02-20T01:38:58.878Z,1.10
2019-02-20T01:41:28.197Z,1.00
2019-02-20T01:43:59.424Z,1.00
2019-02-20T01:46:28.648Z,1.00
2019-02-20T01:48:57.923Z,0.90
2019-02-20T01:51:27.167Z,0.90
2019-02-20T01:53:58.257Z,0.90
2019-02-20T01:56:27.480Z,0.90
2019-02-20T01:58:56.734Z,0.90
2019-02-20T02:01:25.981Z,0.90
2019-02-20T02:03:55.598Z,0.80
2019-02-20T02:06:24.861Z,0.80
2019-02-20T02:08:54.146Z,0.80
2019-02-20T02:11:23.450Z,0.80
2019-02-20T02:14:01.754Z,0.80
2019-02-20T02:16:31.088Z,0.80
2019-02-20T02:19:00.415Z,0.80
2019-02-20T02:21:29.740Z,0.80
2019-02-20T02:23:58.984Z,0.70
2019-02-20T02:26:28.254Z,0.70
2019-02-20T02:28:57.514Z,0.70
2019-02-20T02:31:26.773Z,0.70
2019-02-20T02:33:56.919Z,0.70
2019-02-20T02:36:26.165Z,0.70
2019-02-20T02:38:55.415Z,0.70
2019-02-20T02:41:24.775Z,0.70
2019-02-20T02:43:54.143Z,0.70
2019-02-20T02:46:23.457Z,0.70
2019-02-20T02:48:52.698Z,0.70
2019-02-20T02:51:22.891Z,0.70
2019-02-20T02:53:57.436Z,0.60
2019-02-20T02:56:26.689Z,0.60
2019-02-20T02:58:55.949Z,0.60
2019-02-20T03:01:25.259Z,0.60
2019-02-20T03:03:54.645Z,0.60
2019-02-20T03:06:23.960Z,0.60
2019-02-20T03:08:53.272Z,0.60
2019-02-20T03:11:22.961Z,0.60
2019-02-20T03:13:55.185Z,0.60
2019-02-20T03:16:24.435Z,0.60
2019-02-20T03:18:53.679Z,0.60
2019-02-20T03:21:22.922Z,0.60
2019-02-20T03:23:52.512Z,0.60
2019-02-20T03:26:21.817Z,0.60
2019-02-20T03:28:51.445Z,0.60
2019-02-20T03:31:20.692Z,0.60
2019-02-20T03:33:50.554Z,0.60
2019-02-20T03:36:19.880Z,0.60
2019-02-20T03:38:49.200Z,0.60
2019-02-20T03:41:18.445Z,0.60
2019-02-20T03:43:48.474Z,0.60
2019-02-20T03:46:17.804Z,0.60
2019-02-20T03:48:47.090Z,0.60
2019-02-20T03:51:16.397Z,0.60
2019-02-20T03:53:51.664Z,0.60
2019-02-20T03:56:17.732Z,0.60
2019-02-20T03:58:47.059Z,0.60
2019-02-20T04:01:16.322Z,0.60
2019-02-20T04:03:46.000Z,0.60
2019-02-20T04:06:15.226Z,0.60
2019-02-20T04:08:44.471Z,0.60
2019-02-20T04:11:13.705Z,0.60
2019-02-20T04:13:43.303Z,0.70
2019-02-20T04:16:12.549Z,0.70
2019-02-20T04:18:41.853Z,0.70
2019-02-20T04:21:11.114Z,0.70
2019-02-20T04:23:40.754Z,0.70
2019-02-20T04:26:10.058Z,0.70
2019-02-20T04:28:39.346Z,0.70
2019-02-20T04:31:08.624Z,0.70
2019-02-20T04:34:01.648Z,0.70
2019-02-20T04:36:30.982Z,0.70
2019-02-20T04:39:00.237Z,0.70
2019-02-20T04:41:29.502Z,0.70
2019-02-20T04:44:00.428Z,0.70
2019-02-20T04:46:29.769Z,0.70
2019-02-20T04:48:59.095Z,0.70
2019-02-20T04:51:28.339Z,0.70
2019-02-20T04:53:58.900Z,0.70
2019-02-20T04:56:28.237Z,0.70
2019-02-20T04:58:59.522Z,0.60
2019-02-20T05:01:28.853Z,0.60
2019-02-20T05:03:58.949Z,0.60
2019-02-20T05:06:28.221Z,0.60
2019-02-20T05:08:57.494Z,0.60
2019-02-20T05:11:26.764Z,0.60
2019-02-20T05:13:56.150Z,0.60
2019-02-20T05:16:25.383Z,0.70
2019-02-20T05:18:54.624Z,0.70
2019-02-20T05:21:23.889Z,0.70
2019-02-20T05:23:53.931Z,0.70
2019-02-20T05:26:23.183Z,0.70
2019-02-20T05:28:52.468Z,0.70
2019-02-20T05:31:21.733Z,0.70
2019-02-20T05:33:50.972Z,0.70
2019-02-20T05:36:20.279Z,0.70
2019-02-20T05:38:49.597Z,0.70
2019-02-20T05:41:18.844Z,0.80
2019-02-20T05:43:57.209Z,0.80
2019-02-20T05:46:26.512Z,0.80
2019-02-20T05:48:55.829Z,0.80
2019-02-20T05:51:25.064Z,0.80
2019-02-20T05:54:03.079Z,0.90
2019-02-20T05:56:32.350Z,0.90
2019-02-20T05:59:01.697Z,0.90
2019-02-20T06:01:31.035Z,0.90
2019-02-20T06:04:00.326Z,0.90
2019-02-20T06:06:29.610Z,0.90
2019-02-20T06:08:58.868Z,0.90
2019-02-20T06:11:28.188Z,0.90
2019-02-20T06:13:58.087Z,0.90
2019-02-20T06:16:27.435Z,0.90
2019-02-20T06:18:56.672Z,0.90
2019-02-20T06:21:25.997Z,0.90
2019-02-20T06:23:55.223Z,0.90
2019-02-20T06:26:24.486Z,0.90
2019-02-20T06:28:53.741Z,0.90
2019-02-20T06:31:23.189Z,0.90
2019-02-20T06:33:52.843Z,0.90
2019-02-20T06:36:22.090Z,1.00
2019-02-20T06:38:51.327Z,1.00
2019-02-20T06:41:20.652Z,1.00
2019-02-20T06:43:50.683Z,1.00
2019-02-20T06:46:19.938Z,1.00
2019-02-20T06:48:49.185Z,1.10
2019-02-20T06:51:18.429Z,1.10
2019-02-20T06:53:47.862Z,1.10
2019-02-20T06:56:17.093Z,1.10
2019-02-20T06:58:46.347Z,1.10
2019-02-20T07:01:15.626Z,1.20
2019-02-20T07:03:44.897Z,1.30
2019-02-20T07:06:31.700Z,1.30
2019-02-20T07:09:15.151Z,1.40
2019-02-20T07:12:04.834Z,1.50
2019-02-20T07:14:40.081Z,1.50
2019-02-20T07:17:36.445Z,1.50
2019-02-20T07:20:40.295Z,1.60
2019-02-20T07:23:12.701Z,1.60
2019-02-20T07:26:08.955Z,1.70
2019-02-20T07:29:16.259Z,1.70
2019-02-20T07:31:45.572Z,1.80
2019-02-20T07:34:14.809Z,1.80
2019-02-20T07:36:44.130Z,1.80
2019-02-20T07:39:13.551Z,1.90
2019-02-20T07:41:43.861Z,1.90
2019-02-20T07:44:13.087Z,1.90
2019-02-20T07:46:42.340Z,2.00
2019-02-20T07:49:11.606Z,2.00
2019-02-20T07:51:40.837Z,2.10
2019-02-20T07:54:10.069Z,2.20
2019-02-20T07:56:39.332Z,2.20
2019-02-20T07:59:08.651Z,2.30
2019-02-20T08:01:37.980Z,2.40
2019-02-20T08:04:07.320Z,2.50
2019-02-20T08:06:36.573Z,2.60
2019-02-20T08:09:06.253Z,2.70
2019-02-20T08:11:35.503Z,2.70
2019-02-20T08:14:04.823Z,2.70
2019-02-20T08:16:34.094Z,2.80
2019-02-20T08:19:03.418Z,2.90
2019-02-20T08:21:32.726Z,3.00
2019-02-20T08:24:02.068Z,3.20
2019-02-20T08:26:31.422Z,3.30
2019-02-20T08:29:00.824Z,3.40
2019-02-20T08:31:30.211Z,3.40
2019-02-20T08:34:00.191Z,3.50
2019-02-20T08:36:29.460Z,3.60
2019-02-20T08:38:58.689Z,3.70
2019-02-20T08:41:27.951Z,3.80
2019-02-20T08:43:57.201Z,3.90
2019-02-20T08:46:26.440Z,3.90
2019-02-20T08:48:55.708Z,4.00
2019-02-20T08:51:25.005Z,4.10
2019-02-20T08:53:54.900Z,4.10
2019-02-20T08:56:24.243Z,4.20
2019-02-20T08:58:53.494Z,4.20
2019-02-20T09:01:23.360Z,4.20
2019-02-20T09:03:52.778Z,4.30
2019-02-20T09:06:22.092Z,4.30
2019-02-20T09:08:51.343Z,4.40
2019-02-20T09:11:20.575Z,4.40
2019-02-20T09:13:50.560Z,4.50
2019-02-20T09:16:19.798Z,4.60
2019-02-20T09:18:49.140Z,4.70
2019-02-20T09:21:18.449Z,4.70
2019-02-20T09:23:48.068Z,4.90
2019-02-20T09:26:17.325Z,4.90
2019-02-20T09:28:46.576Z,5.00
2019-02-20T09:31:15.816Z,5.10
2019-02-20T09:33:45.251Z,5.20
2019-02-20T09:36:14.458Z,5.30
2019-02-20T09:38:43.707Z,5.40
2019-02-20T09:41:13.038Z,5.50
2019-02-20T09:43:43.635Z,5.60
2019-02-20T09:46:12.879Z,5.70
2019-02-20T09:48:42.184Z,5.80
2019-02-20T09:51:11.486Z,5.90
2019-02-20T09:53:50.959Z,5.90
2019-02-20T09:56:20.256Z,6.00
2019-02-20T09:58:49.566Z,6.00
2019-02-20T10:01:18.871Z,6.00
2019-02-20T10:03:48.598Z,6.10
2019-02-20T10:06:17.854Z,6.10
2019-02-20T10:08:47.106Z,6.00
2019-02-20T10:11:16.342Z,6.00
2019-02-20T10:13:47.136Z,5.90
2019-02-20T10:16:16.768Z,5.90
2019-02-20T10:18:46.048Z,5.90
2019-02-20T10:21:17.155Z,5.90
2019-02-20T10:23:53.326Z,5.90
2019-02-20T10:26:23.438Z,5.90
2019-02-20T10:28:54.097Z,6.00
2019-02-20T10:31:23.606Z,6.10
2019-02-20T10:33:52.929Z,6.30
2019-02-20T10:36:22.247Z,6.40
2019-02-20T10:38:51.481Z,6.60
2019-02-20T10:41:20.728Z,6.70
2019-02-20T10:43:50.524Z,6.90
2019-02-20T10:46:19.769Z,7.00
2019-02-20T10:48:49.015Z,7.10
2019-02-20T10:51:18.276Z,7.20
2019-02-20T10:53:47.508Z,7.30
2019-02-20T10:56:16.762Z,7.40
2019-02-20T10:58:45.986Z,7.30
2019-02-20T11:01:15.233Z,7.30
2019-02-20T11:03:44.533Z,7.30
2019-02-20T11:06:13.761Z,7.20
2019-02-20T11:08:42.999Z,7.60
2019-02-20T11:11:12.230Z,7.20
2019-02-20T11:13:41.536Z,7.20
2019-02-20T11:16:10.863Z,7.30
2019-02-20T11:18:40.189Z,7.30
2019-02-20T11:21:09.431Z,7.30
2019-02-20T11:23:38.994Z,7.30
2019-02-20T11:26:08.370Z,7.30
2019-02-20T11:28:37.599Z,7.30
2019-02-20T11:31:06.902Z,7.20
2019-02-20T11:33:36.156Z,7.20
2019-02-20T11:36:05.467Z,7.10
2019-02-20T11:38:34.759Z,7.20
2019-02-20T11:41:04.479Z,7.20
2019-02-20T11:43:33.724Z,7.30
2019-02-20T11:46:03.075Z,7.40
2019-02-20T11:48:32.393Z,7.50
2019-02-20T11:51:01.665Z,7.50
2019-02-20T11:53:37.018Z,7.50
2019-02-20T11:56:03.577Z,7.60
2019-02-20T11:58:32.831Z,7.60
2019-02-20T12:01:02.171Z,7.60
2019-02-20T12:03:32.329Z,7.70
2019-02-20T12:06:01.613Z,7.80
2019-02-20T12:08:30.863Z,7.90
2019-02-20T12:11:00.141Z,7.90
2019-02-20T12:13:29.889Z,7.90
2019-02-20T12:15:59.139Z,8.00
2019-02-20T12:18:28.449Z,8.00
2019-02-20T12:20:57.737Z,8.20
2019-02-20T12:23:27.369Z,8.30
2019-02-20T12:25:56.635Z,8.30
2019-02-20T12:28:25.874Z,8.30
2019-02-20T12:30:55.189Z,8.30
2019-02-20T12:33:24.453Z,8.30
2019-02-20T12:35:53.745Z,8.40
2019-02-20T12:38:23.619Z,8.50
2019-02-20T12:40:52.854Z,8.60
2019-02-20T12:43:22.083Z,8.70
2019-02-20T12:45:51.421Z,8.80
2019-02-20T12:48:20.703Z,8.80
2019-02-20T12:50:49.923Z,8.90
2019-02-20T12:53:19.153Z,9.00
2019-02-20T12:55:50.047Z,9.00
2019-02-20T12:58:19.486Z,9.10
2019-02-20T13:00:48.791Z,9.20
2019-02-20T13:03:18.030Z,9.40
2019-02-20T13:05:47.273Z,9.50
2019-02-20T13:08:16.600Z,9.50
2019-02-20T13:10:45.839Z,9.50
2019-02-20T13:13:15.141Z,9.50
2019-02-20T13:15:44.432Z,9.50
2019-02-20T13:18:13.826Z,9.40
2019-02-20T13:20:43.069Z,9.30
2019-02-20T13:23:12.297Z,9.30
2019-02-20T13:25:41.555Z,9.30
2019-02-20T13:28:10.797Z,9.30
2019-02-20T13:30:40.132Z,9.30
2019-02-20T13:33:09.443Z,9.40
2019-02-20T13:35:38.672Z,9.40
2019-02-20T13:38:07.921Z,9.50
2019-02-20T13:40:37.135Z,9.50
2019-02-20T13:43:06.450Z,9.50
2019-02-20T13:45:35.948Z,9.50
2019-02-20T13:48:05.627Z,9.50
2019-02-20T13:50:34.951Z,9.50
2019-02-20T13:53:04.349Z,9.50
2019-02-20T13:55:34.711Z,9.40
2019-02-20T13:58:04.517Z,9.40
2019-02-20T14:00:33.844Z,9.40
2019-02-20T14:03:03.479Z,9.40
2019-02-20T14:05:32.729Z,9.50
2019-02-20T14:08:02.068Z,9.50
2019-02-20T14:10:31.371Z,9.50
2019-02-20T14:13:00.677Z,9.40
2019-02-20T14:15:30.008Z,9.40
2019-02-20T14:17:59.322Z,9.50
2019-02-20T14:20:28.635Z,9.50
2019-02-20T14:22:57.897Z,9.50
2019-02-20T14:25:27.213Z,9.50
2019-02-20T14:27:56.677Z,9.60
2019-02-20T14:30:25.997Z,9.60
2019-02-20T14:32:55.318Z,9.60
2019-02-20T14:35:24.842Z,9.70
2019-02-20T14:37:54.172Z,9.70
2019-02-20T14:40:23.659Z,9.80
2019-02-20T14:42:53.341Z,9.80
2019-02-20T14:45:23.561Z,9.80
2019-02-20T14:47:52.863Z,9.70
2019-02-20T14:50:22.394Z,9.60
2019-02-20T14:52:51.688Z,9.60
2019-02-20T14:55:21.018Z,9.50
2019-02-20T14:57:51.180Z,9.50
2019-02-20T15:00:20.612Z,9.50
2019-02-20T15:02:49.841Z,9.40
2019-02-20T15:05:19.488Z,9.50
2019-02-20T15:07:48.806Z,9.50
2019-02-20T15:10:18.218Z,9.50
2019-02-20T15:12:47.596Z,9.50
2019-02-20T15:15:18.827Z,9.50
2019-02-20T15:17:47.919Z,9.50
2019-02-20T15:20:17.519Z,9.50
2019-02-20T15:22:46.772Z,9.60
2019-02-20T15:25:16.031Z,9.60
2019-02-20T15:27:45.348Z,9.60
2019-02-20T15:30:17.793Z,9.70
2019-02-20T15:32:47.027Z,9.70
2019-02-20T15:35:16.708Z,9.70
2019-02-20T15:37:46.171Z,9.60
2019-02-20T15:40:15.506Z,9.60
2019-02-20T15:42:44.821Z,9.60
2019-02-20T15:45:14.297Z,9.50
2019-02-20T15:47:43.688Z,9.50
2019-02-20T15:50:14.631Z,9.40
2019-02-20T15:52:43.940Z,9.30
2019-02-20T15:55:13.527Z,9.20
2019-02-20T15:57:42.839Z,9.10
2019-02-20T16:00:18.498Z,8.90
2019-02-20T16:02:47.799Z,9.00
2019-02-20T16:05:17.559Z,9.00
2019-02-20T16:07:47.044Z,9.00
2019-02-20T16:10:16.994Z,8.90
2019-02-20T16:12:46.320Z,8.90
2019-02-20T16:15:15.641Z,8.80
2019-02-20T16:17:45.168Z,8.80
2019-02-20T16:20:14.925Z,8.80
2019-02-20T16:22:44.249Z,8.70
2019-02-20T16:25:17.258Z,8.60
2019-02-20T16:27:47.678Z,8.60
2019-02-20T16:30:17.344Z,8.50
2019-02-20T16:32:46.650Z,8.50
2019-02-20T16:35:16.245Z,8.40
2019-02-20T16:37:45.513Z,8.40
2019-02-20T16:40:16.074Z,8.30
2019-02-20T16:42:45.483Z,8.30
2019-02-20T16:45:17.833Z,8.20
2019-02-20T16:47:47.243Z,8.20
2019-02-20T16:50:16.747Z,8.20
2019-02-20T16:52:46.049Z,8.20
2019-02-20T16:55:19.176Z,8.20
2019-02-20T16:57:46.235Z,8.20
2019-02-20T17:00:17.977Z,8.20
2019-02-20T17:02:47.310Z,8.20
2019-02-20T17:05:16.674Z,8.20
2019-02-20T17:07:46.140Z,8.20
2019-02-20T17:10:16.477Z,8.10
2019-02-20T17:12:45.875Z,8.10
2019-02-20T17:15:16.528Z,8.10
2019-02-20T17:17:46.012Z,8.10
2019-02-20T17:20:19.345Z,8.00
2019-02-20T17:22:48.692Z,8.00
2019-02-20T17:25:18.362Z,8.00
2019-02-20T17:27:47.595Z,8.00
2019-02-20T17:30:18.075Z,8.00
2019-02-20T17:32:48.016Z,8.00
2019-02-20T17:35:17.485Z,8.00
2019-02-20T17:37:46.766Z,7.90
2019-02-20T17:40:16.356Z,7.90
2019-02-20T17:42:45.723Z,7.90
2019-02-20T17:45:16.770Z,7.90
2019-02-20T17:47:46.371Z,7.80
2019-02-20T17:50:26.163Z,7.70
2019-02-20T17:52:55.476Z,7.70
2019-02-20T17:55:24.739Z,7.60
2019-02-20T17:57:54.021Z,7.60
2019-02-20T18:00:25.593Z,7.60
2019-02-20T18:02:54.811Z,7.50
2019-02-20T18:05:24.205Z,7.50
2019-02-20T18:07:53.522Z,7.50
2019-02-20T18:10:22.800Z,7.50
2019-02-20T18:12:52.097Z,7.50
2019-02-20T18:15:21.347Z,7.50
2019-02-20T18:17:50.660Z,7.50
2019-02-20T18:20:19.894Z,7.50
2019-02-20T18:22:49.124Z,7.50
2019-02-20T18:25:18.386Z,7.50
2019-02-20T18:27:47.652Z,7.50
2019-02-20T18:30:16.982Z,7.50
2019-02-20T18:32:46.306Z,7.40
2019-02-20T18:35:17.403Z,7.40
2019-02-20T18:37:46.794Z,7.40
2019-02-20T18:40:17.235Z,7.30
2019-02-20T18:42:46.596Z,7.30
2019-02-20T18:45:16.220Z,7.30
2019-02-20T18:47:45.628Z,7.30
2019-02-20T18:50:16.016Z,7.30
2019-02-20T18:52:45.354Z,7.20
2019-02-20T18:55:14.917Z,7.20
2019-02-20T18:57:44.330Z,7.20
2019-02-20T19:00:20.668Z,7.20
2019-02-20T19:02:50.137Z,7.20
2019-02-20T19:05:19.600Z,7.10
2019-02-20T19:07:48.932Z,7.10
2019-02-20T19:10:40.207Z,7.10
2019-02-20T19:13:13.372Z,7.00
2019-02-20T19:15:54.252Z,7.00
2019-02-20T19:18:35.912Z,7.00
2019-02-20T19:21:23.255Z,7.00
2019-02-20T19:24:19.165Z,7.00
2019-02-20T19:26:57.174Z,6.90
2019-02-20T19:29:35.033Z,6.90
2019-02-20T19:32:25.488Z,6.80
2019-02-20T19:35:03.767Z,6.80
2019-02-20T19:37:50.588Z,6.70
2019-02-20T19:40:40.583Z,6.70
2019-02-20T19:43:27.097Z,6.60
2019-02-20T19:46:00.232Z,6.60
2019-02-20T19:48:47.674Z,6.60
2019-02-20T19:51:37.845Z,6.60
2019-02-20T19:54:19.061Z,6.50
2019-02-20T19:57:24.571Z,6.50
2019-02-20T20:00:02.884Z,6.50
2019-02-20T20:02:57.852Z,6.50
2019-02-20T20:05:39.473Z,6.50
2019-02-20T20:08:30.308Z,6.40
2019-02-20T20:11:20.904Z,6.50
2019-02-20T20:14:27.263Z,6.40
2019-02-20T20:17:05.844Z,6.50
2019-02-20T20:19:44.144Z,6.50
2019-02-20T20:22:33.371Z,6.40
2019-02-20T20:25:15.053Z,6.40
2019-02-20T20:27:59.693Z,7.00
2019-02-20T20:30:56.667Z,6.30
2019-02-20T20:33:45.389Z,6.20
2019-02-20T20:36:48.147Z,6.10
2019-02-20T20:39:20.572Z,6.00
2019-02-20T20:42:23.370Z,5.90
2019-02-20T20:44:58.299Z,5.80
2019-02-20T20:47:47.333Z,5.70
2019-02-20T20:50:45.538Z,5.70
2019-02-20T20:53:34.635Z,5.60
2019-02-20T20:56:15.945Z,5.50
2019-02-20T20:58:51.203Z,5.50
2019-02-20T21:01:40.055Z,5.40
2019-02-20T21:04:32.027Z,5.40
2019-02-20T21:07:10.147Z,5.30
2019-02-20T21:09:54.365Z,5.30
2019-02-20T21:12:44.122Z,5.30
2019-02-20T21:15:32.082Z,5.30
2019-02-20T21:18:28.688Z,5.30
2019-02-20T21:21:07.034Z,5.30
2019-02-20T21:23:40.003Z,5.30
2019-02-20T21:26:20.803Z,5.20
2019-02-20T21:28:53.146Z,5.20
2019-02-20T21:31:54.491Z,5.20
2019-02-20T21:34:38.748Z,5.10
2019-02-20T21:37:36.781Z,5.10
2019-02-20T21:40:25.510Z,5.20
2019-02-20T21:43:22.344Z,5.10
2019-02-20T21:46:03.665Z,5.00
2019-02-20T21:48:50.980Z,5.00
2019-02-20T21:51:26.145Z,5.00
2019-02-20T21:54:07.312Z,4.90
2019-02-20T21:56:54.644Z,4.90
2019-02-20T21:59:45.595Z,4.90
2019-02-20T22:02:45.421Z,4.90
2019-02-20T22:05:44.620Z,4.90
2019-02-20T22:08:34.327Z,5.00
2019-02-20T22:11:06.700Z,5.00
2019-02-20T22:14:01.195Z,5.00
2019-02-20T22:16:56.105Z,5.00
2019-02-20T22:19:46.374Z,5.00
2019-02-20T22:22:36.954Z,4.90
2019-02-20T22:25:33.507Z,4.90
2019-02-20T22:28:22.047Z,4.90
2019-02-20T22:31:02.543Z,4.80
2019-02-20T22:33:35.864Z,4.70
2019-02-20T22:36:25.934Z,4.70
2019-02-20T22:39:16.244Z,4.60
2019-02-20T22:42:06.817Z,4.50
2019-02-20T22:45:12.653Z,4.50
2019-02-20T22:47:44.966Z,4.40
2019-02-20T22:50:28.622Z,4.30
2019-02-20T22:53:06.791Z,4.30
2019-02-20T22:55:58.454Z,4.20
2019-02-20T22:58:38.069Z,4.20
2019-02-20T23:01:15.930Z,4.10
2019-02-20T23:04:08.476Z,4.10
2019-02-20T23:06:55.808Z,4.10
2019-02-20T23:09:33.671Z,4.00
2019-02-20T23:12:20.988Z,3.70
2019-02-20T23:14:58.057Z,3.90
2019-02-20T23:17:28.684Z,3.90
2019-02-20T23:19:57.968Z,3.80
2019-02-20T23:22:27.326Z,3.80
2019-02-20T23:24:56.553Z,3.80
2019-02-20T23:27:25.781Z,3.80
2019-02-20T23:29:55.060Z,3.70
2019-02-20T23:32:24.380Z,3.70
2019-02-20T23:34:53.635Z,3.70
2019-02-20T23:37:22.940Z,3.70
2019-02-20T23:39:52.202Z,3.60
2019-02-20T23:42:21.504Z,3.60
2019-02-20T23:44:50.745Z,3.60
2019-02-20T23:47:19.997Z,3.60
2019-02-20T23:49:49.286Z,3.60
2019-02-20T23:52:18.567Z,3.60
2019-02-20T23:54:47.822Z,3.50
2019-02-20T23:57:17.134Z,3.50
2019-02-20T23:59:46.375Z,3.50
